sensor_id;sensor_type;location;lat;lon;timestamp;pressure;altitude;pressure_sealevel;temperature;humidity
35443;BME280;21561;55.654;37.592;2023-01-31T00:01:15;97397.75;;;-2.95;100.00
35443;BME280;21561;55.654;37.592;2023-01-31T00:03:42;97396.84;;;-3.00;100.00
35443;BME280;21561;55.654;37.592;2023-01-31T00:06:20;97401.91;;;-3.00;100.00
35443;BME280;21561;55.654;37.592;2023-01-31T00:08:48;97405.31;;;-3.01;100.00
35443;BME280;21561;55.654;37.592;2023-01-31T00:11:17;97404.44;;;-3.00;100.00
35443;BME280;21561;55.654;37.592;2023-01-31T00:13:44;97408.72;;;-2.99;100.00
35443;BME280;21561;55.654;37.592;2023-01-31T00:16:13;97405.34;;;-2.95;100.00
35443;BME280;21561;55.654;37.592;2023-01-31T00:18:40;97398.59;;;-2.96;100.00
35443;BME280;21561;55.654;37.592;2023-01-31T00:21:19;97399.47;;;-2.92;100.00
35443;BME280;21561;55.654;37.592;2023-01-31T00:23:47;97397.75;;;-2.98;100.00
35443;BME280;21561;55.654;37.592;2023-01-31T00:26:27;97394.34;;;-2.97;100.00
35443;BME280;21561;55.654;37.592;2023-01-31T00:28:56;97409.59;;;-2.95;100.00
35443;BME280;21561;55.654;37.592;2023-01-31T00:31:25;97405.34;;;-2.98;100.00
35443;BME280;21561;55.654;37.592;2023-01-31T00:33:54;97407.91;;;-2.95;100.00
35443;BME280;21561;55.654;37.592;2023-01-31T00:36:24;97402.81;;;-2.96;100.00
35443;BME280;21561;55.654;37.592;2023-01-31T00:38:53;97396.88;;;-2.97;100.00
35443;BME280;21561;55.654;37.592;2023-01-31T00:41:22;97401.91;;;-3.00;100.00
35443;BME280;21561;55.654;37.592;2023-01-31T00:43:49;97400.25;;;-2.96;100.00
35443;BME280;21561;55.654;37.592;2023-01-31T00:46:17;97401.97;;;-2.97;100.00
35443;BME280;21561;55.654;37.592;2023-01-31T00:48:46;97407.03;;;-2.97;100.00
35443;BME280;21561;55.654;37.592;2023-01-31T00:51:13;97414.63;;;-2.98;100.00
35443;BME280;21561;55.654;37.592;2023-01-31T00:53:40;97423.09;;;-2.96;100.00
35443;BME280;21561;55.654;37.592;2023-01-31T00:56:10;97433.31;;;-2.92;100.00
35443;BME280;21561;55.654;37.592;2023-01-31T00:58:37;97425.69;;;-2.92;100.00
35443;BME280;21561;55.654;37.592;2023-01-31T01:01:12;97418.16;;;-2.87;100.00
35443;BME280;21561;55.654;37.592;2023-01-31T01:03:40;97416.44;;;-2.86;100.00
35443;BME280;21561;55.654;37.592;2023-01-31T01:06:07;97426.59;;;-2.88;100.00
35443;BME280;21561;55.654;37.592;2023-01-31T01:08:35;97423.22;;;-2.87;100.00
35443;BME280;21561;55.654;37.592;2023-01-31T01:11:29;97429.19;;;-2.83;100.00
35443;BME280;21561;55.654;37.592;2023-01-31T01:13:54;97426.63;;;-2.85;100.00
35443;BME280;21561;55.654;37.592;2023-01-31T01:16:27;97440.97;;;-2.85;100.00
35443;BME280;21561;55.654;37.592;2023-01-31T01:19:00;97432.53;;;-2.86;100.00
35443;BME280;21561;55.654;37.592;2023-01-31T01:21:54;97441.88;;;-2.83;100.00
35443;BME280;21561;55.654;37.592;2023-01-31T01:24:21;97425.78;;;-2.84;100.00
35443;BME280;21561;55.654;37.592;2023-01-31T01:26:48;97431.72;;;-2.82;100.00
35443;BME280;21561;55.654;37.592;2023-01-31T01:29:15;97430.81;;;-2.85;100.00
35443;BME280;21561;55.654;37.592;2023-01-31T01:31:41;97434.25;;;-2.83;100.00
35443;BME280;21561;55.654;37.592;2023-01-31T01:34:13;97430.06;;;-2.78;100.00
35443;BME280;21561;55.654;37.592;2023-01-31T01:36:41;97420.75;;;-2.79;100.00
35443;BME280;21561;55.654;37.592;2023-01-31T01:39:09;97425.88;;;-2.76;100.00
35443;BME280;21561;55.654;37.592;2023-01-31T01:41:38;97437.66;;;-2.78;100.00
35443;BME280;21561;55.654;37.592;2023-01-31T01:44:41;97437.72;;;-2.75;100.00
35443;BME280;21561;55.654;37.592;2023-01-31T01:49:41;97443.63;;;-2.75;100.00
35443;BME280;21561;55.654;37.592;2023-01-31T01:52:10;97446.22;;;-2.70;100.00
35443;BME280;21561;55.654;37.592;2023-01-31T01:54:53;97436.06;;;-2.70;100.00
35443;BME280;21561;55.654;37.592;2023-01-31T01:57:25;97440.31;;;-2.69;100.00
35443;BME280;21561;55.654;37.592;2023-01-31T02:00:03;97431.00;;;-2.70;100.00
35443;BME280;21561;55.654;37.592;2023-01-31T02:02:35;97434.34;;;-2.71;100.00
35443;BME280;21561;55.654;37.592;2023-01-31T02:05:02;97441.16;;;-2.70;100.00
35443;BME280;21561;55.654;37.592;2023-01-31T02:07:30;97421.63;;;-2.77;100.00
35443;BME280;21561;55.654;37.592;2023-01-31T02:12:29;97426.78;;;-2.68;100.00
35443;BME280;21561;55.654;37.592;2023-01-31T02:14:57;97425.09;;;-2.69;100.00
35443;BME280;21561;55.654;37.592;2023-01-31T02:17:24;97416.63;;;-2.68;100.00
35443;BME280;21561;55.654;37.592;2023-01-31T02:25:37;97408.13;;;-2.73;100.00
35443;BME280;21561;55.654;37.592;2023-01-31T02:28:20;97420.81;;;-2.73;100.00
35443;BME280;21561;55.654;37.592;2023-01-31T02:33:55;97410.66;;;-2.73;100.00
35443;BME280;21561;55.654;37.592;2023-01-31T02:50:58;97414.94;;;-2.69;100.00
35443;BME280;21561;55.654;37.592;2023-01-31T02:53:33;97431.88;;;-2.66;100.00
35443;BME280;21561;55.654;37.592;2023-01-31T02:59:04;97411.56;;;-2.66;100.00
35443;BME280;21561;55.654;37.592;2023-01-31T03:01:37;97419.22;;;-2.63;100.00
35443;BME280;21561;55.654;37.592;2023-01-31T03:04:07;97414.09;;;-2.68;100.00
35443;BME280;21561;55.654;37.592;2023-01-31T03:14:30;97419.25;;;-2.59;100.00
35443;BME280;21561;55.654;37.592;2023-01-31T03:19:57;97428.50;;;-2.65;100.00
35443;BME280;21561;55.654;37.592;2023-01-31T03:22:32;97429.41;;;-2.62;100.00
35443;BME280;21561;55.654;37.592;2023-01-31T03:25:01;97420.06;;;-2.63;100.00
35443;BME280;21561;55.654;37.592;2023-01-31T03:27:33;97438.72;;;-2.59;100.00
35443;BME280;21561;55.654;37.592;2023-01-31T03:30:14;97435.34;;;-2.60;100.00
35443;BME280;21561;55.654;37.592;2023-01-31T03:32:49;97433.63;;;-2.59;100.00
35443;BME280;21561;55.654;37.592;2023-01-31T03:35:24;97453.13;;;-2.57;100.00
35443;BME280;21561;55.654;37.592;2023-01-31T03:38:14;97440.44;;;-2.55;100.00
35443;BME280;21561;55.654;37.592;2023-01-31T03:40:51;97444.69;;;-2.56;100.00
35443;BME280;21561;55.654;37.592;2023-01-31T03:46:18;97450.63;;;-2.54;100.00
35443;BME280;21561;55.654;37.592;2023-01-31T03:48:51;97459.06;;;-2.56;100.00
35443;BME280;21561;55.654;37.592;2023-01-31T03:51:23;97449.78;;;-2.54;100.00
35443;BME280;21561;55.654;37.592;2023-01-31T03:54:03;97447.28;;;-2.48;100.00
35443;BME280;21561;55.654;37.592;2023-01-31T03:56:41;97449.81;;;-2.48;100.00
35443;BME280;21561;55.654;37.592;2023-01-31T03:59:14;97464.22;;;-2.48;100.00
35443;BME280;21561;55.654;37.592;2023-01-31T04:01:46;97468.47;;;-2.47;100.00
35443;BME280;21561;55.654;37.592;2023-01-31T04:04:22;97454.06;;;-2.47;100.00
35443;BME280;21561;55.654;37.592;2023-01-31T04:06:51;97454.00;;;-2.52;100.00
35443;BME280;21561;55.654;37.592;2023-01-31T04:09:18;97446.41;;;-2.52;100.00
35443;BME280;21561;55.654;37.592;2023-01-31T04:11:48;97458.28;;;-2.49;100.00
35443;BME280;21561;55.654;37.592;2023-01-31T04:14:16;97459.97;;;-2.50;100.00
35443;BME280;21561;55.654;37.592;2023-01-31T04:16:44;97466.78;;;-2.45;100.00
35443;BME280;21561;55.654;37.592;2023-01-31T04:19:11;97463.38;;;-2.47;100.00
35443;BME280;21561;55.654;37.592;2023-01-31T04:21:37;97459.13;;;-2.48;100.00
35443;BME280;21561;55.654;37.592;2023-01-31T04:24:04;97475.25;;;-2.45;100.00
35443;BME280;21561;55.654;37.592;2023-01-31T04:26:31;97468.47;;;-2.44;100.00
35443;BME280;21561;55.654;37.592;2023-01-31T04:28:58;97467.63;;;-2.46;100.00
35443;BME280;21561;55.654;37.592;2023-01-31T04:31:25;97472.72;;;-2.43;100.00
35443;BME280;21561;55.654;37.592;2023-01-31T04:33:52;97476.16;;;-2.40;100.00
35443;BME280;21561;55.654;37.592;2023-01-31T04:36:19;97473.56;;;-2.43;100.00
35443;BME280;21561;55.654;37.592;2023-01-31T04:38:46;97482.94;;;-2.40;100.00
35443;BME280;21561;55.654;37.592;2023-01-31T04:41:12;97477.84;;;-2.40;100.00
35443;BME280;21561;55.654;37.592;2023-01-31T04:43:39;97494.78;;;-2.39;100.00
35443;BME280;21561;55.654;37.592;2023-01-31T04:46:06;97484.56;;;-2.42;100.00
35443;BME280;21561;55.654;37.592;2023-01-31T04:48:33;97490.56;;;-2.37;100.00
35443;BME280;21561;55.654;37.592;2023-01-31T04:51:00;97509.19;;;-2.38;100.00
35443;BME280;21561;55.654;37.592;2023-01-31T04:53:27;97492.28;;;-2.36;100.00
35443;BME280;21561;55.654;37.592;2023-01-31T04:55:54;97493.06;;;-2.39;100.00
35443;BME280;21561;55.654;37.592;2023-01-31T04:58:21;97499.00;;;-2.41;100.00
35443;BME280;21561;55.654;37.592;2023-01-31T05:00:48;97497.28;;;-2.42;100.00
35443;BME280;21561;55.654;37.592;2023-01-31T05:03:15;97489.69;;;-2.39;100.00
35443;BME280;21561;55.654;37.592;2023-01-31T05:05:42;97499.03;;;-2.38;100.00
35443;BME280;21561;55.654;37.592;2023-01-31T05:08:09;97499.03;;;-2.38;100.00
35443;BME280;21561;55.654;37.592;2023-01-31T05:10:36;97489.69;;;-2.39;100.00
35443;BME280;21561;55.654;37.592;2023-01-31T05:13:03;97510.88;;;-2.40;100.00
35443;BME280;21561;55.654;37.592;2023-01-31T05:15:30;97492.22;;;-2.39;100.00
35443;BME280;21561;55.654;37.592;2023-01-31T05:17:58;97489.66;;;-2.42;100.00
35443;BME280;21561;55.654;37.592;2023-01-31T05:20:36;97495.59;;;-2.43;100.00
35443;BME280;21561;55.654;37.592;2023-01-31T05:23:06;97514.22;;;-2.41;100.00
35443;BME280;21561;55.654;37.592;2023-01-31T05:25:35;97510.88;;;-2.40;100.00
35443;BME280;21561;55.654;37.592;2023-01-31T05:28:03;97517.59;;;-2.45;100.00
35443;BME280;21561;55.654;37.592;2023-01-31T05:30:30;97508.28;;;-2.45;100.00
35443;BME280;21561;55.654;37.592;2023-01-31T05:32:58;97521.00;;;-2.43;100.00
35443;BME280;21561;55.654;37.592;2023-01-31T05:35:25;97515.91;;;-2.43;100.00
35443;BME280;21561;55.654;37.592;2023-01-31T05:37:53;97504.84;;;-2.48;100.00
35443;BME280;21561;55.654;37.592;2023-01-31T05:40:20;97511.66;;;-2.47;100.00
35443;BME280;21561;55.654;37.592;2023-01-31T05:42:57;97513.38;;;-2.42;100.00
35443;BME280;21561;55.654;37.592;2023-01-31T05:45:29;97510.75;;;-2.50;100.00
35443;BME280;21561;55.654;37.592;2023-01-31T05:47:57;97504.03;;;-2.44;100.00
35443;BME280;21561;55.654;37.592;2023-01-31T05:50:24;97509.13;;;-2.44;100.00
35443;BME280;21561;55.654;37.592;2023-01-31T05:52:59;97522.72;;;-2.39;100.00
35443;BME280;21561;55.654;37.592;2023-01-31T05:55:26;97515.94;;;-2.42;100.00
35443;BME280;21561;55.654;37.592;2023-01-31T05:57:53;97506.63;;;-2.41;100.00
35443;BME280;21561;55.654;37.592;2023-01-31T06:00:22;97515.94;;;-2.40;100.00
35443;BME280;21561;55.654;37.592;2023-01-31T06:02:49;97519.34;;;-2.40;100.00
35443;BME280;21561;55.654;37.592;2023-01-31T06:05:16;97530.28;;;-2.42;100.00
35443;BME280;21561;55.654;37.592;2023-01-31T06:07:43;97521.88;;;-2.38;100.00
35443;BME280;21561;55.654;37.592;2023-01-31T06:10:10;97539.66;;;-2.38;100.00
35443;BME280;21561;55.654;37.592;2023-01-31T06:12:38;97527.78;;;-2.39;100.00
35443;BME280;21561;55.654;37.592;2023-01-31T06:15:06;97543.88;;;-2.39;100.00
35443;BME280;21561;55.654;37.592;2023-01-31T06:17:33;97533.72;;;-2.39;100.00
35443;BME280;21561;55.654;37.592;2023-01-31T06:20:00;97539.69;;;-2.35;100.00
35443;BME280;21561;55.654;37.592;2023-01-31T06:22:29;97530.41;;;-2.32;100.00
35443;BME280;21561;55.654;37.592;2023-01-31T06:24:56;97526.19;;;-2.31;100.00
35443;BME280;21561;55.654;37.592;2023-01-31T06:27:23;97544.75;;;-2.35;100.00
35443;BME280;21561;55.654;37.592;2023-01-31T06:29:50;97540.56;;;-2.33;100.00
35443;BME280;21561;55.654;37.592;2023-01-31T06:32:17;97531.41;;;-2.19;100.00
35443;BME280;21561;55.654;37.592;2023-01-31T06:34:43;97559.25;;;-2.26;100.00
35443;BME280;21561;55.654;37.592;2023-01-31T06:37:10;97551.63;;;-2.26;100.00
35443;BME280;21561;55.654;37.592;2023-01-31T06:39:37;97549.97;;;-2.26;100.00
35443;BME280;21561;55.654;37.592;2023-01-31T06:42:04;97560.13;;;-2.26;100.00
35443;BME280;21561;55.654;37.592;2023-01-31T06:44:31;97561.81;;;-2.25;100.00
35443;BME280;21561;55.654;37.592;2023-01-31T06:47:00;97572.16;;;-2.06;100.00
35443;BME280;21561;55.654;37.592;2023-01-31T06:49:27;97582.34;;;-2.03;100.00
35443;BME280;21561;55.654;37.592;2023-01-31T06:51:53;97566.22;;;-2.07;100.00
35443;BME280;21561;55.654;37.592;2023-01-31T06:54:21;97577.31;;;-1.99;100.00
35443;BME280;21561;55.654;37.592;2023-01-31T06:56:47;97572.22;;;-2.00;100.00
35443;BME280;21561;55.654;37.592;2023-01-31T06:59:14;97567.94;;;-2.03;100.00
35443;BME280;21561;55.654;37.592;2023-01-31T07:01:41;97577.28;;;-2.03;100.00
35443;BME280;21561;55.654;37.592;2023-01-31T07:04:08;97580.63;;;-2.07;100.00
35443;BME280;21561;55.654;37.592;2023-01-31T07:06:35;97570.47;;;-2.07;100.00
35443;BME280;21561;55.654;37.592;2023-01-31T07:09:02;97578.03;;;-2.12;100.00
35443;BME280;21561;55.654;37.592;2023-01-31T07:11:29;97587.41;;;-2.08;100.00
35443;BME280;21561;55.654;37.592;2023-01-31T07:13:55;97590.75;;;-2.11;100.00
35443;BME280;21561;55.654;37.592;2023-01-31T07:16:22;97589.94;;;-2.06;100.00
35443;BME280;21561;55.654;37.592;2023-01-31T07:18:52;97585.75;;;-2.04;100.00
35443;BME280;21561;55.654;37.592;2023-01-31T07:21:20;97608.72;;;-1.94;100.00
35443;BME280;21561;55.654;37.592;2023-01-31T07:23:47;97608.72;;;-1.94;100.00
35443;BME280;21561;55.654;37.592;2023-01-31T07:26:13;97594.34;;;-1.92;100.00
35443;BME280;21561;55.654;37.592;2023-01-31T07:28:40;97597.72;;;-1.91;100.00
35443;BME280;21561;55.654;37.592;2023-01-31T07:31:11;97596.00;;;-1.92;100.00
35443;BME280;21561;55.654;37.592;2023-01-31T07:33:39;97610.50;;;-1.86;100.00
35443;BME280;21561;55.654;37.592;2023-01-31T07:36:07;97604.59;;;-1.81;100.00
35443;BME280;21561;55.654;37.592;2023-01-31T07:38:36;97607.16;;;-1.79;100.00
35443;BME280;21561;55.654;37.592;2023-01-31T07:41:03;97619.81;;;-1.84;100.00
35443;BME280;21561;55.654;37.592;2023-01-31T07:43:31;97608.81;;;-1.84;100.00
35443;BME280;21561;55.654;37.592;2023-01-31T07:45:58;97613.81;;;-1.92;100.00
35443;BME280;21561;55.654;37.592;2023-01-31T07:48:26;97611.28;;;-1.89;100.00
35443;BME280;21561;55.654;37.592;2023-01-31T07:50:58;97612.97;;;-1.91;100.00
35443;BME280;21561;55.654;37.592;2023-01-31T07:53:27;97625.72;;;-1.88;100.00
35443;BME280;21561;55.654;37.592;2023-01-31T07:56:05;97635.13;;;-1.81;100.00
35443;BME280;21561;55.654;37.592;2023-01-31T07:58:35;97640.13;;;-1.90;100.00
35443;BME280;21561;55.654;37.592;2023-01-31T08:01:03;97628.28;;;-1.86;100.00
35443;BME280;21561;55.654;37.592;2023-01-31T08:03:49;97635.91;;;-1.83;100.00
35443;BME280;21561;55.654;37.592;2023-01-31T08:06:16;97639.38;;;-1.78;100.00
35443;BME280;21561;55.654;37.592;2023-01-31T08:08:44;97630.03;;;-1.78;100.00
35443;BME280;21561;55.654;37.592;2023-01-31T08:11:11;97643.66;;;-1.76;100.00
35443;BME280;21561;55.654;37.592;2023-01-31T08:13:38;97634.34;;;-1.74;100.00
35443;BME280;21561;55.654;37.592;2023-01-31T08:16:07;97636.84;;;-1.77;100.00
35443;BME280;21561;55.654;37.592;2023-01-31T08:18:36;97638.56;;;-1.76;100.00
35443;BME280;21561;55.654;37.592;2023-01-31T08:21:04;97639.44;;;-1.69;100.00
35443;BME280;21561;55.654;37.592;2023-01-31T08:23:31;97650.53;;;-1.62;100.00
35443;BME280;21561;55.654;37.592;2023-01-31T08:26:00;97651.41;;;-1.60;100.00
35443;BME280;21561;55.654;37.592;2023-01-31T08:28:27;97648.84;;;-1.60;100.00
35443;BME280;21561;55.654;37.592;2023-01-31T08:30:54;97643.78;;;-1.60;100.00
35443;BME280;21561;55.654;37.592;2023-01-31T08:33:36;97660.75;;;-1.59;100.00
35443;BME280;21561;55.654;37.592;2023-01-31T08:36:24;97665.97;;;-1.42;100.00
35443;BME280;21561;55.654;37.592;2023-01-31T08:38:52;97652.38;;;-1.49;100.00
35443;BME280;21561;55.654;37.592;2023-01-31T08:41:21;97654.91;;;-1.49;100.00
35443;BME280;21561;55.654;37.592;2023-01-31T08:43:49;97666.75;;;-1.49;100.00
35443;BME280;21561;55.654;37.592;2023-01-31T08:46:26;97662.63;;;-1.40;100.00
35443;BME280;21561;55.654;37.592;2023-01-31T08:48:57;97671.94;;;-1.42;100.00
35443;BME280;21561;55.654;37.592;2023-01-31T08:51:25;97664.31;;;-1.42;100.00
35443;BME280;21561;55.654;37.592;2023-01-31T08:53:51;97658.38;;;-1.41;100.00
35443;BME280;21561;55.654;37.592;2023-01-31T08:56:18;97663.41;;;-1.44;100.00
35443;BME280;21561;55.654;37.592;2023-01-31T08:58:47;97665.16;;;-1.41;100.00
35443;BME280;21561;55.654;37.592;2023-01-31T09:01:16;97653.25;;;-1.42;100.00
35443;BME280;21561;55.654;37.592;2023-01-31T09:03:44;97657.53;;;-1.40;100.00
35443;BME280;21561;55.654;37.592;2023-01-31T09:06:14;97666.06;;;-1.31;100.00
35443;BME280;21561;55.654;37.592;2023-01-31T09:08:41;97668.66;;;-1.28;100.00
35443;BME280;21561;55.654;37.592;2023-01-31T09:11:08;97666.06;;;-1.31;100.00
35443;BME280;21561;55.654;37.592;2023-01-31T09:13:35;97656.72;;;-1.36;100.00
35443;BME280;21561;55.654;37.592;2023-01-31T09:16:04;97664.31;;;-1.39;100.00
35443;BME280;21561;55.654;37.592;2023-01-31T09:18:35;97667.72;;;-1.40;100.00
35443;BME280;21561;55.654;37.592;2023-01-31T09:21:04;97663.50;;;-1.38;100.00
35443;BME280;21561;55.654;37.592;2023-01-31T09:23:31;97662.63;;;-1.37;100.00
35443;BME280;21561;55.654;37.592;2023-01-31T09:25:57;97667.78;;;-1.30;100.00
35443;BME280;21561;55.654;37.592;2023-01-31T09:28:25;97663.56;;;-1.28;100.00
35443;BME280;21561;55.654;37.592;2023-01-31T09:30:52;97659.34;;;-1.23;100.00
35443;BME280;21561;55.654;37.592;2023-01-31T09:33:21;97652.63;;;-1.18;100.00
35443;BME280;21561;55.654;37.592;2023-01-31T09:35:58;97656.03;;;-1.16;100.00
35443;BME280;21561;55.654;37.592;2023-01-31T09:38:26;97662.84;;;-1.12;100.00
35443;BME280;21561;55.654;37.592;2023-01-31T09:40:55;97647.56;;;-1.12;100.00
35443;BME280;21561;55.654;37.592;2023-01-31T09:43:28;97651.81;;;-1.11;100.00
35443;BME280;21561;55.654;37.592;2023-01-31T09:46:00;97645.06;;;-1.04;100.00
35443;BME280;21561;55.654;37.592;2023-01-31T09:48:33;97661.19;;;-1.05;100.00
35443;BME280;21561;55.654;37.592;2023-01-31T09:51:01;97656.06;;;-1.10;100.00
35443;BME280;21561;55.654;37.592;2023-01-31T09:53:32;97671.31;;;-1.13;100.00
35443;BME280;21561;55.654;37.592;2023-01-31T09:58:59;97665.31;;;-1.20;100.00
35443;BME280;21561;55.654;37.592;2023-01-31T10:07:45;97654.38;;;-1.08;100.00
35443;BME280;21561;55.654;37.592;2023-01-31T10:12:51;97662.88;;;-1.09;100.00
35443;BME280;21561;55.654;37.592;2023-01-31T10:15:31;97668.84;;;-1.01;100.00
35443;BME280;21561;55.654;37.592;2023-01-31T10:20:55;97683.31;;;-0.97;100.00
35443;BME280;21561;55.654;37.592;2023-01-31T10:23:37;97679.84;;;-1.05;100.00
35443;BME280;21561;55.654;37.592;2023-01-31T10:26:12;97681.56;;;-1.04;100.00
35443;BME280;21561;55.654;37.592;2023-01-31T10:29:09;97690.09;;;-0.99;100.00
35443;BME280;21561;55.654;37.592;2023-01-31T10:31:57;97694.34;;;-0.96;100.00
35443;BME280;21561;55.654;37.592;2023-01-31T10:34:29;97683.31;;;-0.97;100.00
35443;BME280;21561;55.654;37.592;2023-01-31T10:37:05;97675.66;;;-1.00;100.00
35443;BME280;21561;55.654;37.592;2023-01-31T10:39:36;97684.16;;;-0.96;100.00
35443;BME280;21561;55.654;37.592;2023-01-31T10:44:46;97672.25;;;-1.00;99.92
35443;BME280;21561;55.654;37.592;2023-01-31T10:47:17;97691.78;;;-0.99;100.00
35443;BME280;21561;55.654;37.592;2023-01-31T10:49:47;97688.41;;;-0.97;99.75
35443;BME280;21561;55.654;37.592;2023-01-31T10:57:31;97688.38;;;-1.00;99.79
35443;BME280;21561;55.654;37.592;2023-01-31T10:59:58;97690.09;;;-0.97;100.00
35443;BME280;21561;55.654;37.592;2023-01-31T11:02:27;97679.94;;;-0.94;100.00
35443;BME280;21561;55.654;37.592;2023-01-31T11:04:58;97676.56;;;-0.91;99.78
35443;BME280;21561;55.654;37.592;2023-01-31T11:07:29;97679.97;;;-0.89;99.61
35443;BME280;21561;55.654;37.592;2023-01-31T11:09:56;97687.63;;;-0.88;99.96
35443;BME280;21561;55.654;37.592;2023-01-31T11:12:51;97684.28;;;-0.82;99.36
35443;BME280;21561;55.654;37.592;2023-01-31T11:15:20;97685.06;;;-0.89;99.33
35443;BME280;21561;55.654;37.592;2023-01-31T11:17:49;97686.78;;;-0.87;99.09
35443;BME280;21561;55.654;37.592;2023-01-31T11:20:33;97691.91;;;-0.81;99.70
35443;BME280;21561;55.654;37.592;2023-01-31T11:23:02;97698.59;;;-0.93;99.59
35443;BME280;21561;55.654;37.592;2023-01-31T11:25:31;97698.59;;;-0.93;99.49
35443;BME280;21561;55.654;37.592;2023-01-31T11:28:02;97681.66;;;-0.91;99.69
35443;BME280;21561;55.654;37.592;2023-01-31T11:30:35;97707.13;;;-0.91;99.27
35443;BME280;21561;55.654;37.592;2023-01-31T11:33:04;97695.22;;;-0.92;99.22
35443;BME280;21561;55.654;37.592;2023-01-31T11:35:32;97693.50;;;-0.93;99.21
35443;BME280;21561;55.654;37.592;2023-01-31T11:38:01;97684.16;;;-0.96;99.69
35443;BME280;21561;55.654;37.592;2023-01-31T11:40:29;97693.50;;;-0.93;99.80
35443;BME280;21561;55.654;37.592;2023-01-31T11:42:59;97691.84;;;-0.91;99.96
35443;BME280;21561;55.654;37.592;2023-01-31T11:45:29;97687.63;;;-0.88;99.42
35443;BME280;21561;55.654;37.592;2023-01-31T11:48:04;97690.16;;;-0.89;99.52
35443;BME280;21561;55.654;37.592;2023-01-31T11:50:37;97699.53;;;-0.85;99.42
35443;BME280;21561;55.654;37.592;2023-01-31T11:55:53;97691.03;;;-0.86;99.81
35443;BME280;21561;55.654;37.592;2023-01-31T11:58:30;97696.97;;;-0.87;99.79
35443;BME280;21561;55.654;37.592;2023-01-31T12:01:11;97693.59;;;-0.81;99.82
35443;BME280;21561;55.654;37.592;2023-01-31T12:04:01;97706.34;;;-0.84;99.86
35443;BME280;21561;55.654;37.592;2023-01-31T12:09:00;97719.06;;;-0.84;99.33
35443;BME280;21561;55.654;37.592;2023-01-31T12:11:31;97719.88;;;-0.87;99.60
35443;BME280;21561;55.654;37.592;2023-01-31T12:14:14;97714.81;;;-0.82;99.99
35443;BME280;21561;55.654;37.592;2023-01-31T12:16:43;97715.63;;;-0.86;99.56
35443;BME280;21561;55.654;37.592;2023-01-31T12:21:51;97715.63;;;-0.86;100.00
35443;BME280;21561;55.654;37.592;2023-01-31T12:24:35;97710.53;;;-0.86;100.00
35443;BME280;21561;55.654;37.592;2023-01-31T12:27:08;97719.84;;;-0.93;100.00
35443;BME280;21561;55.654;37.592;2023-01-31T12:30:01;97730.88;;;-0.91;100.00
35443;BME280;21561;55.654;37.592;2023-01-31T12:44:23;97730.88;;;-0.92;100.00
35443;BME280;21561;55.654;37.592;2023-01-31T12:55:28;97741.06;;;-0.92;100.00
35443;BME280;21561;55.654;37.592;2023-01-31T13:00:45;97750.41;;;-0.93;100.00
35443;BME280;21561;55.654;37.592;2023-01-31T13:06:00;97762.22;;;-0.98;100.00
35443;BME280;21561;55.654;37.592;2023-01-31T13:08:30;97740.16;;;-0.98;100.00
35443;BME280;21561;55.654;37.592;2023-01-31T13:11:14;97753.75;;;-0.94;100.00
35443;BME280;21561;55.654;37.592;2023-01-31T13:14:04;97751.28;;;-0.89;100.00
35443;BME280;21561;55.654;37.592;2023-01-31T13:16:44;97762.22;;;-0.98;100.00
35443;BME280;21561;55.654;37.592;2023-01-31T13:19:33;97736.78;;;-0.98;100.00
35443;BME280;21561;55.654;37.592;2023-01-31T13:22:10;97732.53;;;-0.98;100.00
35443;BME280;21561;55.654;37.592;2023-01-31T13:24:40;97750.31;;;-1.01;100.00
35443;BME280;21561;55.654;37.592;2023-01-31T13:27:14;97735.03;;;-1.01;100.00
35443;BME280;21561;55.654;37.592;2023-01-31T13:29:48;97740.13;;;-1.01;100.00
35443;BME280;21561;55.654;37.592;2023-01-31T13:32:28;97745.22;;;-1.01;100.00
35443;BME280;21561;55.654;37.592;2023-01-31T13:35:15;97739.31;;;-1.00;100.00
35443;BME280;21561;55.654;37.592;2023-01-31T13:37:47;97744.44;;;-0.93;100.00
35443;BME280;21561;55.654;37.592;2023-01-31T13:40:25;97738.53;;;-0.91;100.00
35443;BME280;21561;55.654;37.592;2023-01-31T13:42:54;97726.63;;;-0.95;100.00
35443;BME280;21561;55.654;37.592;2023-01-31T13:45:26;97745.28;;;-0.96;100.00
35443;BME280;21561;55.654;37.592;2023-01-31T13:48:01;97749.53;;;-0.93;100.00
35443;BME280;21561;55.654;37.592;2023-01-31T13:50:40;97770.75;;;-0.94;100.00
35443;BME280;21561;55.654;37.592;2023-01-31T13:53:30;97785.22;;;-0.89;100.00
35443;BME280;21561;55.654;37.592;2023-01-31T13:56:00;97794.50;;;-0.94;100.00
35443;BME280;21561;55.654;37.592;2023-01-31T13:58:30;97785.16;;;-0.93;100.00
35443;BME280;21561;55.654;37.592;2023-01-31T14:01:04;97784.38;;;-0.89;100.00
35443;BME280;21561;55.654;37.592;2023-01-31T14:09:29;97797.94;;;-0.89;100.00
35443;BME280;21561;55.654;37.592;2023-01-31T14:11:59;97812.38;;;-0.89;100.00
35443;BME280;21561;55.654;37.592;2023-01-31T14:17:04;97797.13;;;-0.86;100.00
35443;BME280;21561;55.654;37.592;2023-01-31T14:22:20;97794.63;;;-0.82;100.00
35443;BME280;21561;55.654;37.592;2023-01-31T14:30:32;97798.88;;;-0.82;100.00
35443;BME280;21561;55.654;37.592;2023-01-31T14:42:07;97808.19;;;-0.86;100.00
35443;BME280;21561;55.654;37.592;2023-01-31T14:53:22;97814.97;;;-0.83;100.00
35443;BME280;21561;55.654;37.592;2023-01-31T14:56:09;97803.88;;;-0.88;100.00
35443;BME280;21561;55.654;37.592;2023-01-31T14:58:44;97816.63;;;-0.87;100.00
35443;BME280;21561;55.654;37.592;2023-01-31T15:01:14;97810.69;;;-0.87;100.00
35443;BME280;21561;55.654;37.592;2023-01-31T15:03:52;97820.88;;;-0.87;100.00
35443;BME280;21561;55.654;37.592;2023-01-31T15:06:24;97830.22;;;-0.89;100.00
35443;BME280;21561;55.654;37.592;2023-01-31T15:11:56;97814.94;;;-0.88;100.00
35443;BME280;21561;55.654;37.592;2023-01-31T15:17:11;97829.34;;;-0.88;100.00
35443;BME280;21561;55.654;37.592;2023-01-31T15:20:20;97834.47;;;-0.85;100.00
35443;BME280;21561;55.654;37.592;2023-01-31T15:22:49;97829.34;;;-0.91;100.00